createdAt,value
2022-07-29T00:00:30.807Z,16.00
2022-07-29T00:02:33.293Z,15.94
2022-07-29T00:04:36.813Z,15.84
2022-07-29T00:06:38.875Z,15.79
2022-07-29T00:08:40.870Z,15.81
2022-07-29T00:10:43.428Z,15.85
2022-07-29T00:12:45.427Z,15.82
2022-07-29T00:14:47.425Z,15.78
2022-07-29T00:16:50.255Z,15.76
2022-07-29T00:18:52.337Z,15.76
2022-07-29T00:20:54.546Z,15.77
2022-07-29T00:22:56.558Z,15.68
2022-07-29T00:24:58.573Z,15.58
2022-07-29T00:27:00.546Z,15.59
2022-07-29T00:29:32.424Z,15.58
2022-07-29T00:31:26.409Z,15.59
2022-07-29T00:33:29.604Z,15.54
2022-07-29T00:35:46.722Z,15.56
2022-07-29T00:37:48.724Z,15.57
2022-07-29T00:39:50.813Z,15.53
2022-07-29T00:41:52.861Z,15.52
2022-07-29T00:43:55.312Z,15.55
2022-07-29T00:45:57.363Z,15.46
2022-07-29T00:47:59.353Z,15.41
2022-07-29T00:50:01.355Z,15.36
2022-07-29T00:52:04.887Z,15.41
2022-07-29T00:54:08.621Z,15.38
2022-07-29T00:56:10.923Z,15.38
2022-07-29T00:58:14.879Z,15.34
2022-07-29T01:00:24.699Z,15.32
2022-07-29T01:02:26.877Z,15.27
2022-07-29T01:04:30.728Z,15.22
2022-07-29T01:06:32.761Z,15.23
2022-07-29T01:08:34.801Z,15.16
2022-07-29T01:10:37.667Z,15.15
2022-07-29T01:12:39.649Z,15.13
2022-07-29T01:14:41.628Z,15.10
2022-07-29T01:17:09.391Z,15.09
2022-07-29T01:19:42.511Z,15.14
2022-07-29T01:21:48.205Z,15.11
2022-07-29T01:24:46.700Z,15.08
2022-07-29T01:26:55.628Z,15.03
2022-07-29T01:29:16.994Z,15.04
2022-07-29T01:31:27.015Z,14.97
2022-07-29T01:33:50.099Z,15.00
2022-07-29T01:35:52.085Z,15.05
2022-07-29T01:38:02.163Z,15.08
2022-07-29T01:40:05.338Z,15.00
2022-07-29T01:42:14.048Z,15.01
2022-07-29T01:44:32.168Z,15.01
2022-07-29T01:46:38.258Z,14.92
2022-07-29T01:48:50.098Z,14.91
2022-07-29T01:51:00.129Z,14.87
2022-07-29T01:53:06.243Z,14.85
2022-07-29T01:55:13.099Z,14.87
2022-07-29T01:57:18.404Z,14.84
2022-07-29T01:59:20.415Z,14.84
2022-07-29T02:01:23.126Z,14.85
2022-07-29T02:03:25.136Z,14.85
2022-07-29T02:05:27.253Z,14.77
2022-07-29T02:07:30.552Z,14.72
2022-07-29T02:09:34.506Z,14.73
2022-07-29T02:11:36.552Z,14.66
2022-07-29T02:13:38.559Z,14.63
2022-07-29T02:15:40.600Z,14.61
2022-07-29T02:17:49.978Z,14.63
2022-07-29T02:19:52.827Z,14.65
2022-07-29T02:21:55.109Z,14.57
2022-07-29T02:23:58.229Z,14.53
2022-07-29T02:26:00.284Z,14.53
2022-07-29T02:28:02.602Z,14.52
2022-07-29T02:30:05.393Z,14.53
2022-07-29T02:32:07.350Z,14.51
2022-07-29T02:34:10.542Z,14.47
2022-07-29T02:36:12.551Z,14.49
2022-07-29T02:38:36.766Z,14.53
2022-07-29T02:40:39.864Z,14.54
2022-07-29T02:42:43.649Z,14.53
2022-07-29T02:44:45.657Z,14.53
2022-07-29T02:47:12.387Z,14.53
2022-07-29T02:49:22.103Z,14.54
2022-07-29T02:51:43.928Z,14.52
2022-07-29T02:53:50.327Z,14.48
2022-07-29T02:55:52.196Z,14.53
2022-07-29T02:58:33.518Z,14.50
2022-07-29T03:00:38.141Z,14.45
2022-07-29T03:02:46.614Z,14.43
2022-07-29T03:04:50.256Z,14.45
2022-07-29T03:06:52.355Z,14.35
2022-07-29T03:08:54.411Z,14.37
2022-07-29T03:10:56.397Z,14.37
2022-07-29T03:12:59.174Z,14.39
2022-07-29T03:15:01.301Z,14.41
2022-07-29T03:17:03.282Z,14.36
2022-07-29T03:19:05.307Z,14.32
2022-07-29T03:21:07.310Z,14.32
2022-07-29T03:23:09.552Z,14.32
2022-07-29T03:25:12.663Z,14.29
2022-07-29T03:27:14.632Z,14.32
2022-07-29T03:29:16.610Z,14.33
2022-07-29T03:31:22.038Z,14.36
2022-07-29T03:33:24.115Z,14.30
2022-07-29T03:35:26.157Z,14.29
2022-07-29T03:37:28.345Z,14.27
2022-07-29T03:39:34.296Z,14.29
2022-07-29T03:41:38.027Z,14.29
2022-07-29T03:43:49.278Z,14.33
2022-07-29T03:45:54.575Z,14.36
2022-07-29T03:48:01.155Z,14.34
2022-07-29T03:50:12.802Z,14.34
2022-07-29T03:52:14.955Z,14.34
2022-07-29T03:54:17.275Z,14.37
2022-07-29T03:56:20.548Z,14.43
2022-07-29T03:58:22.572Z,14.41
2022-07-29T04:00:25.631Z,14.35
2022-07-29T04:02:30.721Z,14.40
2022-07-29T04:04:36.300Z,14.45
2022-07-29T04:06:46.474Z,14.48
2022-07-29T04:08:50.452Z,14.50
2022-07-29T04:10:53.510Z,14.50
2022-07-29T04:12:55.505Z,14.52
2022-07-29T04:14:57.476Z,14.53
2022-07-29T04:16:59.923Z,14.58
2022-07-29T04:19:01.950Z,14.56
2022-07-29T04:21:05.075Z,14.61
2022-07-29T04:23:07.084Z,14.63
2022-07-29T04:25:09.590Z,14.67
2022-07-29T04:27:11.593Z,14.73
2022-07-29T04:29:15.249Z,14.77
2022-07-29T04:31:19.354Z,14.79
2022-07-29T04:33:24.932Z,14.80
2022-07-29T04:35:27.336Z,14.81
2022-07-29T04:37:29.310Z,14.80
2022-07-29T04:39:31.395Z,14.77
2022-07-29T04:41:33.845Z,14.83
2022-07-29T04:43:37.137Z,14.87
2022-07-29T04:45:39.149Z,14.88
2022-07-29T04:47:41.232Z,14.96
2022-07-29T04:49:43.246Z,15.01
2022-07-29T04:51:45.258Z,15.06
2022-07-29T04:53:47.248Z,15.14
2022-07-29T04:55:49.525Z,15.15
2022-07-29T04:57:51.522Z,15.20
2022-07-29T04:59:53.517Z,15.23
2022-07-29T05:01:55.614Z,15.26
2022-07-29T05:04:00.488Z,15.29
2022-07-29T05:06:02.885Z,15.31
2022-07-29T05:08:05.274Z,15.32
2022-07-29T05:10:07.671Z,15.38
2022-07-29T05:12:10.751Z,15.46
2022-07-29T05:14:12.842Z,15.56
2022-07-29T05:16:15.374Z,15.61
2022-07-29T05:18:17.462Z,15.68
2022-07-29T05:20:19.845Z,15.72
2022-07-29T05:22:21.980Z,15.76
2022-07-29T05:24:24.019Z,15.80
2022-07-29T05:26:26.030Z,15.79
2022-07-29T05:28:28.014Z,15.82
2022-07-29T05:30:30.026Z,15.92
2022-07-29T05:32:32.847Z,15.98
2022-07-29T05:34:34.912Z,16.04
2022-07-29T05:36:36.902Z,16.10
2022-07-29T05:38:39.028Z,16.13
2022-07-29T05:40:40.998Z,16.17
2022-07-29T05:42:43.115Z,16.15
2022-07-29T05:44:45.116Z,16.21
2022-07-29T05:46:47.238Z,16.27
2022-07-29T05:48:51.620Z,16.29
2022-07-29T05:50:53.687Z,16.32
2022-07-29T05:52:55.696Z,16.38
2022-07-29T05:54:57.859Z,16.48
2022-07-29T05:56:59.852Z,16.55
2022-07-29T05:59:01.933Z,16.59
2022-07-29T06:01:04.387Z,16.59
2022-07-29T06:03:06.569Z,16.59
2022-07-29T06:05:12.870Z,16.65
2022-07-29T06:07:19.376Z,16.76
2022-07-29T06:09:21.370Z,16.83
2022-07-29T06:11:23.374Z,16.89
2022-07-29T06:13:25.354Z,16.95
2022-07-29T06:15:27.370Z,17.01
2022-07-29T06:17:29.344Z,16.99
2022-07-29T06:19:32.027Z,16.97
2022-07-29T06:21:34.715Z,17.04
2022-07-29T06:23:40.714Z,17.16
2022-07-29T06:25:42.770Z,17.25
2022-07-29T06:27:44.846Z,17.23
2022-07-29T06:29:46.823Z,17.21
2022-07-29T06:31:48.815Z,17.34
2022-07-29T06:33:50.827Z,17.42
2022-07-29T06:35:54.926Z,17.47
2022-07-29T06:37:59.608Z,17.51
2022-07-29T06:40:20.559Z,17.62
2022-07-29T06:42:22.604Z,17.72
2022-07-29T06:44:25.750Z,17.78
2022-07-29T06:46:28.663Z,17.82
2022-07-29T06:48:30.782Z,17.79
2022-07-29T06:50:32.811Z,17.82
2022-07-29T06:52:34.791Z,17.93
2022-07-29T06:54:36.833Z,17.95
2022-07-29T06:56:40.406Z,18.04
2022-07-29T06:58:42.468Z,18.15
2022-07-29T07:00:46.064Z,18.24
2022-07-29T07:02:48.132Z,18.28
2022-07-29T07:04:50.247Z,18.34
2022-07-29T07:06:52.314Z,18.34
2022-07-29T07:08:54.308Z,18.38
2022-07-29T07:10:57.348Z,18.47
2022-07-29T07:12:59.419Z,18.52
2022-07-29T07:15:01.418Z,18.55
2022-07-29T07:17:04.979Z,18.62
2022-07-29T07:19:07.043Z,18.75
2022-07-29T07:21:09.218Z,18.86
2022-07-29T07:23:11.665Z,18.96
2022-07-29T07:25:13.775Z,19.08
2022-07-29T07:27:15.786Z,19.10
2022-07-29T07:29:17.932Z,19.18
2022-07-29T07:31:20.005Z,19.29
2022-07-29T07:33:22.142Z,19.37
2022-07-29T07:35:24.196Z,19.46
2022-07-29T07:37:26.569Z,19.59
2022-07-29T07:39:28.559Z,19.63
2022-07-29T07:41:32.501Z,19.76
2022-07-29T07:43:35.031Z,19.90
2022-07-29T07:45:38.488Z,20.00
2022-07-29T07:47:40.886Z,20.11
2022-07-29T07:49:42.856Z,20.22
2022-07-29T07:51:50.609Z,20.32
2022-07-29T07:53:53.204Z,20.41
2022-07-29T07:56:12.367Z,20.46
2022-07-29T07:58:14.958Z,20.55
2022-07-29T08:00:17.511Z,20.64
2022-07-29T08:02:19.567Z,20.76
2022-07-29T08:04:26.870Z,20.85
2022-07-29T08:06:29.945Z,20.94
2022-07-29T08:08:31.982Z,21.02
2022-07-29T08:10:52.807Z,21.09
2022-07-29T08:12:54.830Z,21.17
2022-07-29T08:14:56.817Z,21.29
2022-07-29T08:16:58.994Z,21.40
2022-07-29T08:19:00.998Z,21.51
2022-07-29T08:21:03.017Z,21.64
2022-07-29T08:23:05.749Z,21.76
2022-07-29T08:25:08.211Z,21.91
2022-07-29T08:27:33.342Z,22.10
2022-07-29T08:29:33.803Z,22.25
2022-07-29T08:31:41.633Z,22.36
2022-07-29T08:33:44.101Z,22.48
2022-07-29T08:35:46.675Z,22.56
2022-07-29T08:37:48.772Z,22.66
2022-07-29T08:39:50.856Z,22.83
2022-07-29T08:41:57.336Z,22.85
2022-07-29T08:43:59.777Z,22.96
2022-07-29T08:46:01.956Z,23.13
2022-07-29T08:48:04.322Z,23.20
2022-07-29T08:50:07.968Z,23.24
2022-07-29T08:52:12.458Z,23.36
2022-07-29T08:54:17.912Z,23.47
2022-07-29T08:56:20.816Z,23.55
2022-07-29T08:58:24.705Z,23.64
2022-07-29T09:00:27.438Z,23.74
2022-07-29T09:02:32.817Z,23.72
2022-07-29T09:04:35.518Z,23.96
2022-07-29T09:06:40.510Z,24.16
2022-07-29T09:08:42.503Z,24.25
2022-07-29T09:10:45.802Z,24.40
2022-07-29T09:12:47.947Z,24.57
2022-07-29T09:14:49.940Z,24.72
2022-07-29T09:16:54.922Z,24.65
2022-07-29T09:18:56.975Z,24.82
2022-07-29T09:21:17.501Z,25.00
2022-07-29T09:23:22.843Z,25.23
2022-07-29T09:25:41.159Z,25.30
2022-07-29T09:27:44.037Z,25.53
2022-07-29T09:29:46.064Z,25.54
2022-07-29T09:31:50.717Z,25.68
2022-07-29T09:33:52.711Z,25.84
2022-07-29T09:36:09.013Z,26.03
2022-07-29T09:38:14.266Z,26.23
2022-07-29T09:40:20.818Z,26.26
2022-07-29T09:42:30.185Z,26.20
2022-07-29T09:44:47.751Z,26.05
2022-07-29T09:47:08.135Z,26.22
2022-07-29T09:49:15.209Z,26.25
2022-07-29T09:51:25.448Z,26.21
2022-07-29T09:53:38.752Z,26.00
2022-07-29T09:55:53.148Z,25.82
2022-07-29T09:57:55.455Z,25.88
2022-07-29T10:00:01.802Z,25.80
2022-07-29T10:02:12.815Z,25.87
2022-07-29T10:04:14.825Z,25.83
2022-07-29T10:06:16.899Z,25.65
2022-07-29T10:08:26.171Z,25.56
2022-07-29T10:10:33.048Z,25.53
2022-07-29T10:12:35.030Z,25.55
2022-07-29T10:14:37.359Z,25.59
2022-07-29T10:16:39.434Z,25.65
2022-07-29T10:18:42.840Z,25.79
2022-07-29T10:20:44.903Z,25.84
2022-07-29T10:22:53.527Z,25.79
2022-07-29T10:24:55.860Z,25.73
2022-07-29T10:26:59.312Z,25.84
2022-07-29T10:29:02.015Z,25.80
2022-07-29T10:31:08.204Z,25.86
2022-07-29T10:33:23.842Z,25.85
2022-07-29T10:36:04.656Z,25.81
2022-07-29T10:38:48.862Z,25.59
2022-07-29T10:41:24.344Z,25.25
2022-07-29T10:43:33.876Z,25.16
2022-07-29T10:45:35.867Z,25.23
2022-07-29T10:47:37.952Z,25.24
2022-07-29T10:49:41.102Z,25.31
2022-07-29T10:52:02.761Z,25.51
2022-07-29T10:54:06.701Z,25.53
2022-07-29T10:56:30.054Z,25.28
2022-07-29T10:58:32.051Z,25.21
2022-07-29T11:00:34.212Z,25.09
2022-07-29T11:02:41.893Z,25.12
2022-07-29T11:04:47.285Z,25.25
2022-07-29T11:07:10.189Z,25.19
2022-07-29T11:09:25.538Z,25.17
2022-07-29T11:11:37.967Z,25.28
2022-07-29T11:16:10.497Z,25.27
2022-07-29T11:18:17.434Z,25.04
2022-07-29T11:20:49.900Z,24.91
2022-07-29T11:22:51.997Z,24.79
2022-07-29T11:25:17.568Z,24.79
2022-07-29T11:27:23.298Z,24.61
2022-07-29T11:29:30.381Z,24.67
2022-07-29T11:31:37.661Z,24.71
2022-07-29T11:33:56.530Z,24.59
2022-07-29T11:36:28.643Z,24.53
2022-07-29T11:38:32.148Z,24.63
2022-07-29T11:40:34.408Z,24.83
2022-07-29T11:45:43.256Z,24.82
2022-07-29T11:47:40.177Z,24.80
2022-07-29T11:49:42.365Z,24.88
2022-07-29T11:51:58.365Z,24.98
2022-07-29T11:54:04.360Z,25.03
2022-07-29T11:56:09.744Z,25.14
2022-07-29T11:58:13.212Z,25.21
2022-07-29T12:00:43.692Z,25.20
2022-07-29T12:05:10.662Z,25.25
2022-07-29T12:07:01.821Z,24.84
2022-07-29T12:07:02.499Z,25.19
2022-07-29T12:07:15.656Z,25.53
2022-07-29T12:09:19.030Z,25.48
2022-07-29T12:11:23.571Z,25.46
2022-07-29T12:13:37.146Z,25.58
2022-07-29T12:15:47.232Z,25.66
2022-07-29T12:17:49.615Z,25.63
2022-07-29T12:19:51.609Z,25.65
2022-07-29T12:21:59.447Z,25.81
2022-07-29T12:24:09.006Z,26.00
2022-07-29T12:26:25.333Z,26.21
2022-07-29T12:28:28.191Z,26.17
2022-07-29T12:30:47.095Z,26.13
2022-07-29T12:32:49.725Z,26.17
2022-07-29T12:34:52.013Z,26.27
2022-07-29T12:36:54.015Z,26.13
2022-07-29T12:38:56.036Z,26.06
2022-07-29T12:40:58.723Z,26.13
2022-07-29T12:43:17.113Z,26.17
2022-07-29T12:45:19.104Z,26.28
2022-07-29T12:47:21.214Z,26.35
2022-07-29T12:49:24.091Z,26.55
2022-07-29T12:51:40.124Z,26.61
2022-07-29T12:53:42.236Z,26.77
2022-07-29T12:55:52.419Z,26.91
2022-07-29T12:57:54.533Z,27.13
2022-07-29T13:00:12.043Z,27.40
2022-07-29T13:02:23.781Z,27.58
2022-07-29T13:04:30.577Z,27.68
2022-07-29T13:07:04.781Z,27.82
2022-07-29T13:09:17.963Z,28.33
2022-07-29T13:11:49.280Z,28.71
2022-07-29T13:14:05.617Z,29.38
2022-07-29T13:16:09.319Z,30.09
2022-07-29T13:18:33.966Z,30.47
2022-07-29T13:20:36.371Z,30.36
2022-07-29T13:22:38.384Z,30.51
2022-07-29T13:24:53.638Z,30.41
2022-07-29T13:26:55.620Z,30.57
2022-07-29T13:28:57.641Z,30.85
2022-07-29T13:30:59.691Z,31.23
2022-07-29T13:33:01.731Z,31.86
2022-07-29T13:35:06.890Z,32.54
2022-07-29T13:37:08.894Z,33.21
2022-07-29T13:39:12.350Z,33.51
2022-07-29T13:41:14.399Z,33.73
2022-07-29T13:43:16.484Z,34.38
2022-07-29T13:45:18.600Z,34.76
2022-07-29T13:47:21.296Z,35.39
2022-07-29T13:49:23.767Z,35.83
2022-07-29T13:51:25.813Z,36.13
2022-07-29T13:53:28.939Z,35.69
2022-07-29T13:55:30.983Z,35.73
2022-07-29T13:57:33.001Z,35.78
2022-07-29T13:59:35.254Z,35.90
2022-07-29T14:01:37.464Z,36.48
2022-07-29T14:03:45.661Z,36.64
2022-07-29T14:05:47.929Z,36.82
2022-07-29T14:07:50.271Z,37.03
2022-07-29T14:09:52.339Z,37.03
2022-07-29T14:11:54.458Z,36.76
2022-07-29T14:13:56.459Z,36.87
2022-07-29T14:15:58.984Z,36.58
2022-07-29T14:18:01.078Z,36.12
2022-07-29T14:20:03.175Z,35.32
2022-07-29T14:22:05.980Z,35.19
2022-07-29T14:24:18.069Z,35.55
2022-07-29T14:26:24.222Z,35.45
2022-07-29T14:28:26.520Z,35.16
2022-07-29T14:30:28.438Z,35.08
2022-07-29T14:32:30.503Z,35.21
2022-07-29T14:34:32.422Z,34.87
2022-07-29T14:36:34.444Z,34.04
2022-07-29T14:38:38.334Z,34.01
2022-07-29T14:40:40.409Z,33.88
2022-07-29T14:42:42.329Z,33.56
2022-07-29T14:44:44.666Z,33.88
2022-07-29T14:46:46.823Z,34.06
2022-07-29T14:48:51.564Z,33.98
2022-07-29T14:50:53.566Z,33.92
2022-07-29T14:52:55.643Z,33.98
2022-07-29T14:54:57.689Z,33.78
2022-07-29T14:56:59.859Z,34.21
2022-07-29T14:59:01.947Z,34.23
2022-07-29T15:01:03.982Z,33.63
2022-07-29T15:03:11.239Z,32.90
2022-07-29T15:05:13.616Z,32.63
2022-07-29T15:07:16.751Z,32.68
2022-07-29T15:09:19.089Z,32.32
2022-07-29T15:11:21.067Z,31.78
2022-07-29T15:13:23.065Z,31.90
2022-07-29T15:15:25.266Z,32.10
2022-07-29T15:17:27.267Z,31.72
2022-07-29T15:19:29.287Z,31.74
2022-07-29T15:21:31.327Z,31.51
2022-07-29T15:23:33.977Z,31.13
2022-07-29T15:25:37.322Z,31.34
2022-07-29T15:27:39.302Z,30.96
2022-07-29T15:29:45.091Z,31.30
2022-07-29T15:31:47.155Z,31.08
2022-07-29T15:33:49.222Z,31.09
2022-07-29T15:35:51.220Z,31.15
2022-07-29T15:37:53.215Z,30.80
2022-07-29T15:39:59.908Z,31.26
2022-07-29T15:42:02.193Z,31.62
2022-07-29T15:44:04.435Z,31.52
2022-07-29T15:46:24.925Z,30.98
2022-07-29T15:48:27.031Z,30.57
2022-07-29T15:50:29.018Z,30.38
2022-07-29T15:52:31.026Z,30.32
2022-07-29T15:54:34.210Z,30.48
2022-07-29T15:56:36.226Z,30.26
2022-07-29T15:58:38.215Z,30.14
2022-07-29T16:00:41.040Z,30.12
2022-07-29T16:02:43.073Z,30.55
2022-07-29T16:04:45.127Z,30.31
2022-07-29T16:06:47.608Z,30.39
2022-07-29T16:08:49.612Z,30.40
2022-07-29T16:10:51.580Z,30.57
2022-07-29T16:12:53.571Z,30.68
2022-07-29T16:14:55.638Z,30.33
2022-07-29T16:16:58.216Z,30.19
2022-07-29T16:19:00.369Z,30.23
2022-07-29T16:21:02.359Z,30.39
2022-07-29T16:23:04.346Z,30.20
2022-07-29T16:25:07.009Z,30.16
2022-07-29T16:27:09.108Z,29.90
2022-07-29T16:29:11.100Z,29.89
2022-07-29T16:31:13.840Z,29.75
2022-07-29T16:33:15.851Z,29.66
2022-07-29T16:35:17.860Z,29.75
2022-07-29T16:37:19.866Z,29.22
2022-07-29T16:39:21.873Z,29.06
2022-07-29T16:41:23.958Z,29.11
2022-07-29T16:43:26.005Z,28.89
2022-07-29T16:45:31.518Z,28.79
2022-07-29T16:47:45.977Z,28.77
2022-07-29T16:49:47.959Z,28.59
2022-07-29T16:51:49.988Z,28.32
2022-07-29T16:53:52.011Z,28.18
2022-07-29T16:55:53.996Z,27.91
2022-07-29T16:57:56.074Z,27.83
2022-07-29T16:59:58.075Z,27.75
2022-07-29T17:02:02.642Z,27.44
2022-07-29T17:04:07.786Z,27.33
2022-07-29T17:06:09.784Z,27.22
2022-07-29T17:08:12.240Z,27.15
2022-07-29T17:10:14.170Z,26.78
2022-07-29T17:12:16.180Z,26.74
2022-07-29T17:14:18.321Z,26.66
2022-07-29T17:16:26.944Z,26.68
2022-07-29T17:18:30.801Z,26.49
2022-07-29T17:20:33.233Z,26.38
2022-07-29T17:22:35.390Z,26.43
2022-07-29T17:24:38.173Z,26.34
2022-07-29T17:26:43.278Z,26.23
2022-07-29T17:28:45.694Z,26.10
2022-07-29T17:30:47.766Z,25.89
2022-07-29T17:32:52.357Z,25.87
2022-07-29T17:34:54.478Z,25.91
2022-07-29T17:36:56.926Z,25.89
2022-07-29T17:39:07.343Z,25.69
2022-07-29T17:41:09.835Z,25.59
2022-07-29T17:43:11.890Z,25.40
2022-07-29T17:45:13.903Z,25.39
2022-07-29T17:47:16.693Z,25.37
2022-07-29T17:49:18.904Z,25.43
2022-07-29T17:51:20.919Z,25.30
2022-07-29T17:53:23.125Z,25.23
2022-07-29T17:55:25.231Z,25.04
2022-07-29T17:57:27.248Z,25.00
2022-07-29T17:59:29.278Z,24.97
2022-07-29T18:01:31.298Z,24.93
2022-07-29T18:03:33.373Z,24.98
2022-07-29T18:05:35.438Z,24.79
2022-07-29T18:07:37.455Z,24.72
2022-07-29T18:09:39.462Z,24.59
2022-07-29T18:11:44.363Z,24.45
2022-07-29T18:13:47.752Z,24.48
2022-07-29T18:15:49.805Z,24.42
2022-07-29T18:17:57.631Z,24.28
2022-07-29T18:20:00.213Z,24.24
2022-07-29T18:22:05.116Z,24.17
2022-07-29T18:24:08.369Z,24.04
2022-07-29T18:26:10.448Z,23.99
2022-07-29T18:28:12.504Z,23.90
2022-07-29T18:30:17.368Z,23.75
2022-07-29T18:32:19.587Z,23.79
2022-07-29T18:34:31.194Z,23.69
2022-07-29T18:36:33.237Z,23.66
2022-07-29T18:38:35.364Z,23.53
2022-07-29T18:40:40.078Z,23.45
2022-07-29T18:42:42.115Z,23.41
2022-07-29T18:44:49.201Z,23.30
2022-07-29T18:46:52.386Z,23.12
2022-07-29T18:48:54.560Z,23.02
2022-07-29T18:50:57.478Z,22.97
2022-07-29T18:53:01.259Z,22.93
2022-07-29T18:55:03.476Z,22.92
2022-07-29T18:57:54.671Z,22.82
2022-07-29T18:59:27.566Z,22.76
2022-07-29T19:01:31.672Z,22.71
2022-07-29T19:03:34.217Z,22.65
2022-07-29T19:05:36.197Z,22.61
2022-07-29T19:07:38.591Z,22.47
2022-07-29T19:09:43.674Z,22.35
2022-07-29T19:11:55.575Z,22.31
2022-07-29T19:13:58.756Z,22.22
2022-07-29T19:16:00.861Z,22.16
2022-07-29T19:18:02.991Z,22.15
2022-07-29T19:20:06.304Z,22.02
2022-07-29T19:22:09.433Z,21.99
2022-07-29T19:24:15.423Z,21.84
2022-07-29T19:26:20.553Z,21.82
2022-07-29T19:28:23.104Z,21.72
2022-07-29T19:30:25.098Z,21.57
2022-07-29T19:32:27.242Z,21.50
2022-07-29T19:34:29.339Z,21.38
2022-07-29T19:36:31.475Z,21.36
2022-07-29T19:38:33.490Z,21.33
2022-07-29T19:40:35.514Z,21.30
2022-07-29T19:42:37.583Z,21.19
2022-07-29T19:44:39.568Z,21.10
2022-07-29T19:46:41.771Z,21.13
2022-07-29T19:48:44.628Z,21.08
2022-07-29T19:50:46.730Z,21.06
2022-07-29T19:52:48.883Z,21.03
2022-07-29T19:54:50.944Z,20.93
2022-07-29T19:56:52.962Z,20.82
2022-07-29T19:58:55.036Z,20.83
2022-07-29T20:00:57.061Z,20.77
2022-07-29T20:02:59.072Z,20.70
2022-07-29T20:05:01.094Z,20.66
2022-07-29T20:07:03.534Z,20.72
2022-07-29T20:09:06.283Z,20.62
2022-07-29T20:11:08.324Z,20.58
2022-07-29T20:13:10.357Z,20.36
2022-07-29T20:15:16.358Z,20.33
2022-07-29T20:17:24.787Z,20.35
2022-07-29T20:19:27.063Z,20.35
2022-07-29T20:21:29.078Z,20.34
2022-07-29T20:23:33.224Z,20.34
2022-07-29T20:25:35.529Z,20.33
2022-07-29T20:27:40.414Z,20.30
2022-07-29T20:29:42.531Z,20.23
2022-07-29T20:31:45.680Z,20.20
2022-07-29T20:33:55.629Z,20.14
2022-07-29T20:35:57.624Z,20.02
2022-07-29T20:38:00.480Z,20.03
2022-07-29T20:40:03.426Z,19.97
2022-07-29T20:42:05.985Z,19.96
2022-07-29T20:44:08.092Z,19.99
2022-07-29T20:46:10.234Z,19.94
2022-07-29T20:48:13.619Z,19.85
2022-07-29T20:50:15.700Z,19.76
2022-07-29T20:52:21.710Z,19.75
2022-07-29T20:54:23.769Z,19.66
2022-07-29T20:56:25.795Z,19.59
2022-07-29T20:58:27.806Z,19.49
2022-07-29T21:00:29.937Z,19.49
2022-07-29T21:02:32.132Z,19.49
2022-07-29T21:04:34.276Z,19.43
2022-07-29T21:06:36.464Z,19.29
2022-07-29T21:08:39.178Z,19.30
2022-07-29T21:10:41.360Z,19.27
2022-07-29T21:12:43.351Z,19.27
2022-07-29T21:14:48.158Z,19.17
2022-07-29T21:16:50.412Z,19.10
2022-07-29T21:18:53.188Z,19.03
2022-07-29T21:20:55.435Z,19.00
2022-07-29T21:22:58.015Z,18.99
2022-07-29T21:25:00.182Z,18.98
2022-07-29T21:27:21.919Z,18.91
2022-07-29T21:29:24.070Z,18.81
2022-07-29T21:31:27.113Z,18.70
2022-07-29T21:33:30.063Z,18.68
2022-07-29T21:36:06.939Z,18.70
2022-07-29T21:37:54.128Z,18.70
2022-07-29T21:39:56.188Z,18.64
2022-07-29T21:41:58.173Z,18.54
2022-07-29T21:44:00.172Z,18.50
2022-07-29T21:46:03.687Z,18.48
2022-07-29T21:48:06.418Z,18.44
2022-07-29T21:50:08.467Z,18.41
2022-07-29T21:52:10.568Z,18.37
2022-07-29T21:54:13.631Z,18.35
2022-07-29T21:56:16.001Z,18.28
2022-07-29T21:58:21.336Z,18.27
2022-07-29T22:00:25.618Z,18.24
2022-07-29T22:02:27.647Z,18.25
2022-07-29T22:04:30.193Z,18.20
2022-07-29T22:06:34.568Z,18.04
2022-07-29T22:08:36.584Z,17.96
2022-07-29T22:10:38.614Z,17.95
2022-07-29T22:12:40.627Z,18.05
2022-07-29T22:14:42.640Z,17.99
2022-07-29T22:16:47.783Z,18.01
2022-07-29T22:18:49.828Z,17.90
2022-07-29T22:20:51.832Z,17.87
2022-07-29T22:22:53.986Z,17.88
2022-07-29T22:24:55.970Z,17.85
2022-07-29T22:26:58.245Z,17.84
2022-07-29T22:29:00.600Z,17.89
2022-07-29T22:31:02.756Z,17.81
2022-07-29T22:33:04.784Z,17.80
2022-07-29T22:35:07.674Z,17.75
2022-07-29T22:37:09.726Z,17.65
2022-07-29T22:39:11.799Z,17.63
2022-07-29T22:41:17.662Z,17.70
2022-07-29T22:43:19.930Z,17.72
2022-07-29T22:45:21.999Z,17.73
2022-07-29T22:47:46.578Z,17.65
2022-07-29T22:49:46.035Z,17.60
2022-07-29T22:51:48.031Z,17.62
2022-07-29T22:53:50.090Z,17.63
2022-07-29T22:55:52.107Z,17.64
2022-07-29T22:57:54.164Z,17.61
2022-07-29T22:59:56.132Z,17.50
2022-07-29T23:01:58.220Z,17.49
2022-07-29T23:04:00.350Z,17.47
2022-07-29T23:06:02.393Z,17.41
2022-07-29T23:08:04.747Z,17.38
2022-07-29T23:10:07.426Z,17.42
2022-07-29T23:12:09.644Z,17.40
2022-07-29T23:14:11.698Z,17.34
2022-07-29T23:16:13.741Z,17.38
2022-07-29T23:18:15.807Z,17.34
2022-07-29T23:20:17.924Z,17.24
2022-07-29T23:22:19.905Z,17.23
2022-07-29T23:24:21.882Z,17.17
2022-07-29T23:26:23.862Z,17.10
2022-07-29T23:28:25.843Z,17.10
2022-07-29T23:30:28.202Z,17.11
2022-07-29T23:32:30.258Z,17.11
2022-07-29T23:34:32.281Z,17.11
2022-07-29T23:36:34.337Z,17.12
2022-07-29T23:38:40.979Z,17.10
2022-07-29T23:40:43.086Z,17.08
2022-07-29T23:42:45.270Z,17.08
2022-07-29T23:44:47.257Z,17.08
2022-07-29T23:46:49.265Z,17.06
2022-07-29T23:48:51.320Z,16.94
2022-07-29T23:50:53.348Z,16.95
2022-07-29T23:52:55.349Z,16.92
2022-07-29T23:55:37.131Z,16.86
2022-07-29T23:57:22.853Z,16.87
2022-07-29T23:59:24.918Z,16.87
